Time;durP1;ratioP1;P1;durP2;ratioP2;P2;SDS_P1;SDS_P2;PMS_P1;PMS_P2;Temp;Humidity;BMP_temperature;BMP_pressure;BME280_temperature;BME280_humidity;BME280_pressure;Samples;Min_cycle;Max_cycle;Signal;HPM_P1;HPM_P2
2023/04/27 00:00:51;;;;;;;;;;;;;;;24.35;47.93;96637.30;621721;228;68727;-59
2023/04/27 00:03:18;;;;;;;;;;;;;;;24.33;46.98;96640.27;621716;228;62915;-59
2023/04/27 00:05:46;;;;;;;;;;;;;;;24.33;49.18;96637.58;615058;228;68785;-59
2023/04/27 00:08:13;;;;;;;;;;;;;;;24.33;47.72;96642.16;621727;228;68548;-59
2023/04/27 00:10:41;;;;;;;;;;;;;;;24.31;49.07;96637.11;621739;228;65122;-59
2023/04/27 00:13:08;;;;;;;;;;;;;;;24.32;48.43;96643.27;621752;228;68856;-59
2023/04/27 00:15:36;;;;;;;;;;;;;;;24.31;48.13;96631.74;621692;228;67001;-59
2023/04/27 00:18:03;;;;;;;;;;;;;;;24.31;47.80;96641.69;621824;228;62973;-59
2023/04/27 00:20:31;;;;;;;;;;;;;;;24.29;49.06;96644.67;621713;228;66683;-59
2023/04/27 00:22:58;;;;;;;;;;;;;;;24.29;48.07;96646.56;621756;228;66668;-59
2023/04/27 00:25:25;;;;;;;;;;;;;;;24.27;46.83;96649.53;621755;228;65133;-59
2023/04/27 00:27:53;;;;;;;;;;;;;;;24.28;48.25;96648.45;621760;228;69015;-59
2023/04/27 00:30:20;;;;;;;;;;;;;;;24.28;49.79;96642.27;621814;228;68743;-59
2023/04/27 00:32:48;;;;;;;;;;;;;;;24.27;48.39;96646.84;621786;228;62865;-59
2023/04/27 00:35:16;;;;;;;;;;;;;;;24.27;48.54;96652.22;621723;228;69033;-59
2023/04/27 00:37:43;;;;;;;;;;;;;;;24.26;48.16;96649.85;621762;228;68529;-59
2023/04/27 00:40:11;;;;;;;;;;;;;;;24.26;49.07;96647.16;621730;228;64952;-59
2023/04/27 00:42:39;;;;;;;;;;;;;;;24.25;48.74;96650.92;621798;228;68884;-59
2023/04/27 00:45:07;;;;;;;;;;;;;;;24.24;49.75;96658.20;621764;228;68698;-59
2023/04/27 00:47:35;;;;;;;;;;;;;;;24.22;48.59;96652.33;621728;228;65065;-59
2023/04/27 00:50:03;;;;;;;;;;;;;;;24.23;48.81;96656.62;621747;228;66192;-59
2023/04/27 00:52:30;;;;;;;;;;;;;;;24.23;49.87;96661.20;621754;228;68702;-59
2023/04/27 00:54:58;;;;;;;;;;;;;;;24.21;49.48;96658.80;621815;228;64918;-59
2023/04/27 00:57:26;;;;;;;;;;;;;;;24.20;47.76;96664.45;621782;228;68622;-59
2023/04/27 00:59:53;;;;;;;;;;;;;;;24.20;49.02;96662.59;621735;228;67654;-59
2023/04/27 01:02:21;;;;;;;;;;;;;;;24.20;49.34;96665.28;621758;228;62916;-59
2023/04/27 01:04:49;;;;;;;;;;;;;;;24.19;48.31;96670.94;621716;228;68826;-59
2023/04/27 01:07:19;;;;;;;;;;;;;;;24.18;46.99;96663.98;621720;228;69062;-59
2023/04/27 01:09:46;;;;;;;;;;;;;;;24.18;50.80;96670.14;621811;228;62708;-58
2023/04/27 01:12:15;;;;;;;;;;;;;;;24.17;49.32;96665.84;621735;228;69205;-59
2023/04/27 01:14:43;;;;;;;;;;;;;;;24.16;48.83;96669.64;621712;228;68658;-59
2023/04/27 01:17:10;;;;;;;;;;;;;;;24.17;49.51;96670.43;621758;228;64868;-58
2023/04/27 01:19:39;;;;;;;;;;;;;;;24.14;48.75;96669.95;621746;228;66601;-58
2023/04/27 01:22:06;;;;;;;;;;;;;;;24.13;47.00;96672.92;621820;228;68473;-59
2023/04/27 01:24:34;;;;;;;;;;;;;;;24.13;48.91;96673.72;621735;228;66041;-59
2023/04/27 01:27:03;;;;;;;;;;;;;;;24.12;48.68;96674.83;621670;228;46375;-60
2023/04/27 01:29:31;;;;;;;;;;;;;;;24.12;48.04;96677.51;621686;228;69283;-60
2023/04/27 01:31:58;;;;;;;;;;;;;;;24.12;48.50;96685.56;621772;228;64846;-59
2023/04/27 01:34:26;;;;;;;;;;;;;;;24.11;47.44;96691.22;621786;228;68699;-60
2023/04/27 01:36:53;;;;;;;;;;;;;;;24.10;49.53;96677.00;621740;228;66706;-60
2023/04/27 01:39:21;;;;;;;;;;;;;;;24.10;48.69;96684.27;621760;228;65803;-60
2023/04/27 01:41:49;;;;;;;;;;;;;;;24.10;49.20;96678.90;621726;228;66331;-59
2023/04/27 01:44:19;;;;;;;;;;;;;;;24.09;50.34;96680.80;621741;228;69411;-59
2023/04/27 01:46:47;;;;;;;;;;;;;;;24.08;50.06;96681.87;621821;228;65040;-59
2023/04/27 01:49:15;;;;;;;;;;;;;;;24.07;49.10;96677.61;621347;228;68474;-59
2023/04/27 01:51:42;;;;;;;;;;;;;;;24.07;48.89;96677.61;615893;229;68619;-59
2023/04/27 01:54:10;;;;;;;;;;;;;;;24.07;49.13;96682.19;616490;229;65846;-59
2023/04/27 01:56:37;;;;;;;;;;;;;;;24.05;48.47;96682.47;618353;229;68863;-59
2023/04/27 01:59:05;;;;;;;;;;;;;;;24.05;49.15;96687.84;618374;229;68654;-59
2023/04/27 02:01:33;;;;;;;;;;;;;;;24.04;49.18;96680.89;618423;229;62891;-59
2023/04/27 02:04:00;;;;;;;;;;;;;;;24.05;49.13;96689.73;618333;229;68896;-59
2023/04/27 02:06:30;;;;;;;;;;;;;;;24.03;46.60;96679.28;618368;229;69272;-60
2023/04/27 02:08:57;;;;;;;;;;;;;;;24.04;50.35;96683.58;618352;229;62998;-58
2023/04/27 02:11:26;;;;;;;;;;;;;;;24.03;49.42;96687.33;618366;229;68498;-58
2023/04/27 02:13:54;;;;;;;;;;;;;;;24.02;48.36;96683.06;618437;229;67129;-58
2023/04/27 02:16:23;;;;;;;;;;;;;;;24.01;48.90;96681.49;618146;229;43347;-59
2023/04/27 02:18:52;;;;;;;;;;;;;;;24.01;50.36;96686.04;618349;229;66975;-58
2023/04/27 02:21:20;;;;;;;;;;;;;;;24.01;50.02;96689.55;618356;229;66430;-58
2023/04/27 02:23:48;;;;;;;;;;;;;;;24.01;49.99;96686.04;618369;229;65151;-59
2023/04/27 02:26:16;;;;;;;;;;;;;;;23.99;47.53;96683.67;618414;229;66145;-59
2023/04/27 02:28:45;;;;;;;;;;;;;;;23.99;50.13;96689.04;618354;229;68357;-59
2023/04/27 02:31:13;;;;;;;;;;;;;;;23.97;48.29;96685.85;618390;229;65050;-59
2023/04/27 02:33:41;;;;;;;;;;;;;;;23.97;48.87;96688.53;618327;229;68261;-59
2023/04/27 02:36:08;;;;;;;;;;;;;;;23.96;47.94;96686.95;622514;228;68395;-59
2023/04/27 02:38:36;;;;;;;;;;;;;;;23.97;48.62;96687.74;623235;227;65916;-58
2023/04/27 02:41:03;;;;;;;;;;;;;;;23.96;49.68;96686.95;622573;227;68813;-59
2023/04/27 02:43:33;;;;;;;;;;;;;;;23.95;49.99;96682.66;618210;226;46327;-58
2023/04/27 02:46:03;;;;;;;;;;;;;;;23.93;49.37;96685.66;617790;229;62889;-58
2023/04/27 02:48:31;;;;;;;;;;;;;;;23.95;49.08;96690.71;614908;226;67285;-59
2023/04/27 02:50:58;;;;;;;;;;;;;;;23.92;49.53;96692.09;616540;230;68846;-59
2023/04/27 02:53:26;;;;;;;;;;;;;;;23.92;48.47;96697.47;616518;228;65058;-59
2023/04/27 02:55:53;;;;;;;;;;;;;;;23.91;48.49;96693.20;618431;228;68672;-59
2023/04/27 02:58:21;;;;;;;;;;;;;;;23.91;48.93;96693.20;619068;228;66528;-59
2023/04/27 03:00:50;;;;;;;;;;;;;;;23.90;47.56;96690.83;618038;227;65791;-59
2023/04/27 03:03:18;;;;;;;;;;;;;;;23.91;49.00;96689.73;623071;227;66331;-59
2023/04/27 03:05:45;;;;;;;;;;;;;;;23.89;49.20;96687.33;620961;227;69242;-58
2023/04/27 03:08:13;;;;;;;;;;;;;;;23.90;48.70;96688.16;621392;227;62655;-59
2023/04/27 03:10:40;;;;;;;;;;;;;;;23.88;49.51;96693.80;623285;227;66599;-58
2023/04/27 03:13:10;;;;;;;;;;;;;;;23.89;49.64;96694.59;623270;227;68564;-58
2023/04/27 03:15:37;;;;;;;;;;;;;;;23.86;49.60;96693.30;623063;227;62770;-58
2023/04/27 03:18:05;;;;;;;;;;;;;;;23.87;47.97;96694.09;620973;227;68639;-59
2023/04/27 03:20:33;;;;;;;;;;;;;;;23.86;48.22;96695.19;622500;227;66727;-59
2023/04/27 03:23:01;;;;;;;;;;;;;;;23.86;49.16;96700.56;617885;227;62771;-58
2023/04/27 03:25:28;;;;;;;;;;;;;;;23.86;48.09;96697.88;620995;227;68696;-58
2023/04/27 03:27:56;;;;;;;;;;;;;;;23.84;48.98;96708.89;619762;227;68678;-59
2023/04/27 03:30:23;;;;;;;;;;;;;;;23.84;49.81;96700.84;623306;227;65081;-58
2023/04/27 03:32:51;;;;;;;;;;;;;;;23.83;48.99;96706.52;619066;227;68624;-58
2023/04/27 03:35:18;;;;;;;;;;;;;;;23.82;50.06;96705.73;619908;227;68766;-58
2023/04/27 03:37:46;;;;;;;;;;;;;;;23.81;49.48;96709.48;618791;228;65264;-58
2023/04/27 03:40:14;;;;;;;;;;;;;;;23.81;48.76;96712.17;614200;229;67446;-58
2023/04/27 03:42:41;;;;;;;;;;;;;;;23.82;49.49;96715.67;616863;228;70186;-58
2023/04/27 03:45:11;;;;;;;;;;;;;;;23.81;48.34;96714.06;617831;228;65084;-59
2023/04/27 03:47:38;;;;;;;;;;;;;;;23.80;48.87;96712.48;619612;227;68804;-59
2023/04/27 03:50:06;;;;;;;;;;;;;;;23.80;50.39;96717.84;623147;227;65833;-58
2023/04/27 03:52:34;;;;;;;;;;;;;;;23.79;49.33;96716.24;619473;227;65036;-59
2023/04/27 03:55:02;;;;;;;;;;;;;;;23.79;50.05;96718.92;624693;226;67392;-59
2023/04/27 03:57:30;;;;;;;;;;;;;;;23.78;49.04;96722.70;621046;227;69226;-59
2023/04/27 03:59:58;;;;;;;;;;;;;;;23.78;49.60;96730.76;621311;227;62458;-59
2023/04/27 04:02:26;;;;;;;;;;;;;;;23.76;48.70;96733.73;623835;227;68788;-59
2023/04/27 04:04:53;;;;;;;;;;;;;;;23.76;49.75;96733.73;624249;227;68683;-59
2023/04/27 04:07:21;;;;;;;;;;;;;;;23.75;51.33;96734.83;618994;227;65051;-59
2023/04/27 04:09:48;;;;;;;;;;;;;;;23.74;49.06;96733.25;621163;227;69609;-59
2023/04/27 04:12:16;;;;;;;;;;;;;;;23.74;50.35;96735.93;622411;227;68880;-59
2023/04/27 04:14:47;;;;;;;;;;;;;;;23.73;49.14;96739.69;625337;227;63027;-58
2023/04/27 04:17:12;;;;;;;;;;;;;;;23.73;50.53;96744.27;623237;227;66379;-59
2023/04/27 04:19:40;;;;;;;;;;;;;;;23.70;48.52;96741.04;619388;227;69048;-59
2023/04/27 04:22:08;;;;;;;;;;;;;;;23.72;48.96;96743.47;624409;227;65045;-59
2023/04/27 04:24:36;;;;;;;;;;;;;;;23.72;48.59;96748.05;618371;227;66679;-60
2023/04/27 04:27:04;;;;;;;;;;;;;;;23.73;48.78;96749.62;614495;229;68663;-59
2023/04/27 04:29:32;;;;;;;;;;;;;;;23.72;47.89;96754.20;617291;228;65710;-60
2023/04/27 04:32:00;;;;;;;;;;;;;;;23.72;47.56;96756.88;617678;228;66324;-60
2023/04/27 04:34:29;;;;;;;;;;;;;;;23.73;48.73;96760.36;616787;229;50467;-59
2023/04/27 04:36:57;;;;;;;;;;;;;;;23.73;46.36;96752.31;617587;228;66078;-59
2023/04/27 04:39:26;;;;;;;;;;;;;;;23.74;48.29;96751.23;615060;228;67608;-60
2023/04/27 04:41:53;;;;;;;;;;;;;;;23.74;50.36;96752.03;617786;226;69606;-60
2023/04/27 04:44:21;;;;;;;;;;;;;;;23.75;48.43;96758.98;617118;229;63769;-60
2023/04/27 04:46:50;;;;;;;;;;;;;;;23.75;49.56;96760.87;617657;228;66066;-60
2023/04/27 04:49:17;;;;;;;;;;;;;;;23.76;49.46;96759.77;617214;228;69169;-60
2023/04/27 04:51:46;;;;;;;;;;;;;;;23.77;49.05;96764.06;617228;227;65025;-60
2023/04/27 04:54:13;;;;;;;;;;;;;;;23.77;49.54;96764.85;619078;228;66413;-60
2023/04/27 04:56:41;;;;;;;;;;;;;;;23.79;49.33;96769.91;614991;228;68530;-60
2023/04/27 04:59:09;;;;;;;;;;;;;;;23.79;49.12;96769.91;618897;227;64805;-59
2023/04/27 05:01:36;;;;;;;;;;;;;;;23.79;49.98;96775.27;620411;228;66187;-60
2023/04/27 05:04:05;;;;;;;;;;;;;;;23.80;49.15;96777.67;620034;227;68323;-59
2023/04/27 05:06:32;;;;;;;;;;;;;;;23.81;48.92;96775.78;615944;228;65079;-60
2023/04/27 05:09:00;;;;;;;;;;;;;;;23.82;49.26;96780.08;617606;228;68829;-59
2023/04/27 05:11:28;;;;;;;;;;;;;;;23.83;50.76;96784.34;618964;228;66989;-60
2023/04/27 05:13:55;;;;;;;;;;;;;;;23.83;48.88;96782.45;619669;228;65122;-60
2023/04/27 05:16:25;;;;;;;;;;;;;;;23.85;49.99;96787.53;615485;228;66580;-60
2023/04/27 05:18:53;;;;;;;;;;;;;;;23.85;47.96;96784.85;617930;229;68688;-60
2023/04/27 05:21:21;;;;;;;;;;;;;;;23.86;47.11;96787.22;616660;228;64879;-60
2023/04/27 05:23:51;;;;;;;;;;;;;;;23.85;49.01;96791.01;617862;227;68563;-60
2023/04/27 05:26:18;;;;;;;;;;;;;;;23.88;49.21;96794.99;615839;229;68727;-60
2023/04/27 05:28:46;;;;;;;;;;;;;;;23.88;47.67;96789.63;616755;229;65024;-59
2023/04/27 05:31:13;;;;;;;;;;;;;;;23.90;47.96;96792.81;618438;227;68430;-60
2023/04/27 05:33:41;;;;;;;;;;;;;;;23.91;49.09;96797.08;619970;228;68613;-59
2023/04/27 05:36:08;;;;;;;;;;;;;;;23.90;47.35;96795.50;615122;228;65000;-59
2023/04/27 05:38:38;;;;;;;;;;;;;;;23.92;48.10;96802.14;619785;228;69041;-59
2023/04/27 05:41:05;;;;;;;;;;;;;;;23.93;48.62;96800.27;616051;228;68774;-59
2023/04/27 05:43:34;;;;;;;;;;;;;;;23.93;48.59;96803.75;615842;229;65052;-59
2023/04/27 05:46:01;;;;;;;;;;;;;;;23.95;49.89;96803.44;615927;229;68745;-60
2023/04/27 05:48:29;;;;;;;;;;;;;;;23.95;47.82;96803.44;614863;228;68683;-60
2023/04/27 05:51:03;;;;;;;;;;;;;;;23.96;51.67;96807.73;620016;227;65342;-60
2023/04/27 05:53:32;;;;;;;;;;;;;;;23.96;50.72;96801.58;615605;228;68799;-58
2023/04/27 05:56:00;;;;;;;;;;;;;;;23.96;50.07;96810.41;615169;229;68657;-58
2023/04/27 05:58:27;;;;;;;;;;;;;;;23.97;48.81;96806.63;619483;228;62956;-58
2023/04/27 06:00:56;;;;;;;;;;;;;;;23.97;50.10;96809.31;615606;228;66601;-58
2023/04/27 06:03:23;;;;;;;;;;;;;;;23.98;49.06;96810.92;615513;228;68679;-58
2023/04/27 06:05:54;;;;;;;;;;;;;;;23.99;50.57;96811.72;613271;227;65019;-57
2023/04/27 06:08:22;;;;;;;;;;;;;;;23.98;51.64;96807.42;616301;228;66684;-58
2023/04/27 06:10:53;;;;;;;;;;;;;;;23.98;47.52;96810.92;612791;228;66678;-58
2023/04/27 06:13:20;;;;;;;;;;;;;;;23.98;48.31;96816.30;615673;230;65093;-58
2023/04/27 06:15:48;;;;;;;;;;;;;;;23.99;47.45;96817.88;613843;229;68841;-58
2023/04/27 06:18:15;;;;;;;;;;;;;;;23.99;43.76;96817.88;612173;231;68123;-59
2023/04/27 06:20:43;;;;;;;;;;;;;;;24.02;46.22;96811.91;612192;230;65010;-59
2023/04/27 06:23:10;;;;;;;;;;;;;;;24.05;46.39;96814.00;612544;231;68525;-59
2023/04/27 06:25:39;;;;;;;;;;;;;;;24.07;48.48;96817.20;612803;230;68712;-58
2023/04/27 06:28:06;;;;;;;;;;;;;;;24.09;47.26;96812.34;613908;230;65013;-59
2023/04/27 06:30:34;;;;;;;;;;;;;;;24.11;47.57;96817.39;615109;230;66354;-58
2023/04/27 06:33:01;;;;;;;;;;;;;;;24.11;49.62;96815.50;615469;230;68424;-58
2023/04/27 06:35:29;;;;;;;;;;;;;;;24.11;46.52;96815.50;613363;230;65074;-58
2023/04/27 06:37:57;;;;;;;;;;;;;;;24.14;49.24;96814.11;616089;230;68590;-58
2023/04/27 06:40:25;;;;;;;;;;;;;;;24.16;49.80;96822.67;615939;229;68724;-58
2023/04/27 06:42:53;;;;;;;;;;;;;;;24.16;47.77;96822.67;613809;230;65080;-59
2023/04/27 06:45:20;;;;;;;;;;;;;;;24.18;50.67;96825.87;616040;230;68537;-58
2023/04/27 06:47:48;;;;;;;;;;;;;;;24.18;47.99;96820.50;614627;229;66640;-58
2023/04/27 06:50:15;;;;;;;;;;;;;;;24.21;48.77;96819.11;611872;231;65018;-58
2023/04/27 06:52:43;;;;;;;;;;;;;;;24.24;46.59;96823.89;612525;230;68893;-58
2023/04/27 06:55:10;;;;;;;;;;;;;;;24.25;45.73;96828.16;612442;230;68633;-58
2023/04/27 06:57:38;;;;;;;;;;;;;;;24.26;49.14;96827.08;616059;230;65064;-58
2023/04/27 07:00:06;;;;;;;;;;;;;;;24.27;48.36;96829.45;616038;230;66430;-58
2023/04/27 07:02:34;;;;;;;;;;;;;;;24.27;48.41;96823.29;613997;230;68717;-58
2023/04/27 07:05:01;;;;;;;;;;;;;;;24.28;49.49;96825.69;615209;230;65067;-58
2023/04/27 07:07:29;;;;;;;;;;;;;;;24.28;47.13;96828.38;613397;230;68798;-58
2023/04/27 07:09:56;;;;;;;;;;;;;;;24.30;49.45;96822.69;615757;230;68928;-58
2023/04/27 07:12:24;;;;;;;;;;;;;;;24.31;48.83;96824.30;613428;230;65083;-58
2023/04/27 07:14:51;;;;;;;;;;;;;;;24.33;48.44;96827.47;616504;228;68879;-58
2023/04/27 07:17:19;;;;;;;;;;;;;;;24.33;48.77;96827.47;611269;230;68533;-58
2023/04/27 07:19:46;;;;;;;;;;;;;;;24.34;50.36;96827.18;613280;229;62909;-58
2023/04/27 07:22:14;;;;;;;;;;;;;;;24.36;49.64;96832.23;613077;230;68737;-58
2023/04/27 07:24:42;;;;;;;;;;;;;;;24.36;47.47;96833.06;611334;230;68660;-58
2023/04/27 07:27:09;;;;;;;;;;;;;;;24.38;46.13;96830.85;609971;229;65030;-58
2023/04/27 07:29:37;;;;;;;;;;;;;;;24.39;50.96;96837.05;611293;230;68836;-58
2023/04/27 07:32:06;;;;;;;;;;;;;;;24.40;48.64;96830.56;613781;230;68520;-58
2023/04/27 07:34:33;;;;;;;;;;;;;;;24.41;45.01;96821.41;612703;230;65179;-58
2023/04/27 07:37:01;;;;;;;;;;;;;;;24.44;49.23;96838.84;611303;230;66640;-58
2023/04/27 07:39:29;;;;;;;;;;;;;;;24.44;46.25;96836.95;612698;230;69025;-58
2023/04/27 07:41:57;;;;;;;;;;;;;;;24.46;47.81;96834.77;613813;230;62883;-58
2023/04/27 07:44:24;;;;;;;;;;;;;;;24.47;47.72;96839.07;614482;230;68914;-58
2023/04/27 07:46:53;;;;;;;;;;;;;;;24.48;44.03;96829.91;611926;230;68677;-58
2023/04/27 07:49:21;;;;;;;;;;;;;;;24.50;48.47;96822.36;611397;230;63002;-58
2023/04/27 07:51:48;;;;;;;;;;;;;;;24.51;44.09;96833.89;611441;230;69005;-58
2023/04/27 07:54:16;;;;;;;;;;;;;;;24.53;48.44;96831.70;611312;230;68641;-58
2023/04/27 07:56:43;;;;;;;;;;;;;;;24.55;44.33;96834.87;615230;229;65049;-57
2023/04/27 07:59:11;;;;;;;;;;;;;;;24.56;45.67;96836.48;616267;229;68611;-59
2023/04/27 08:01:38;;;;;;;;;;;;;;;24.56;48.24;96831.90;613005;230;68849;-59
2023/04/27 08:04:06;;;;;;;;;;;;;;;24.58;44.79;96836.95;616046;230;62999;-59
2023/04/27 08:06:33;;;;;;;;;;;;;;;24.58;47.61;96839.64;612573;230;66960;-59
2023/04/27 08:09:03;;;;;;;;;;;;;;;24.61;45.12;96839.08;611257;230;68663;-59
2023/04/27 08:11:30;;;;;;;;;;;;;;;24.62;46.06;96839.86;612771;230;64964;-59
2023/04/27 08:13:58;;;;;;;;;;;;;;;24.62;44.86;96839.86;613573;230;68953;-59
2023/04/27 08:16:25;;;;;;;;;;;;;;;24.64;44.88;96837.69;613067;230;68695;-59
2023/04/27 08:18:53;;;;;;;;;;;;;;;24.65;45.93;96836.58;611839;229;65032;-59
2023/04/27 08:21:20;;;;;;;;;;;;;;;24.65;44.83;96837.37;615311;230;68809;-59
2023/04/27 08:23:48;;;;;;;;;;;;;;;24.67;44.31;96842.45;614896;229;68728;-59
2023/04/27 08:26:16;;;;;;;;;;;;;;;24.69;44.57;96834.87;613170;230;65085;-59
2023/04/27 08:28:43;;;;;;;;;;;;;;;24.69;45.34;96829.49;614955;230;68771;-59
2023/04/27 08:31:11;;;;;;;;;;;;;;;24.71;45.81;96833.48;615980;227;66637;-59
2023/04/27 08:33:39;;;;;;;;;;;;;;;24.72;44.73;96831.61;614424;229;65156;-60
2023/04/27 08:36:06;;;;;;;;;;;;;;;24.72;43.08;96826.23;613765;230;68842;-59
2023/04/27 08:38:34;;;;;;;;;;;;;;;24.73;46.09;96830.50;612694;230;68566;-59
2023/04/27 08:41:02;;;;;;;;;;;;;;;24.72;46.42;96824.34;611949;230;65040;-59
2023/04/27 08:43:40;;;;;;;;;;;;;;;24.74;47.11;96824.81;616663;229;68857;-60
2023/04/27 08:46:03;;;;;;;;;;;;;;;24.74;46.40;96824.81;616298;229;68366;-59
2023/04/27 08:48:32;;;;;;;;;;;;;;;24.75;46.03;96828.32;615615;228;46904;-59
2023/04/27 08:51:01;;;;;;;;;;;;;;;24.75;46.93;96826.42;611037;229;66712;-59
2023/04/27 08:53:29;;;;;;;;;;;;;;;24.75;48.82;96825.63;611398;230;69025;-59
2023/04/27 08:55:57;;;;;;;;;;;;;;;24.75;48.42;96823.73;611433;230;65044;-58
2023/04/27 08:58:26;;;;;;;;;;;;;;;24.76;46.13;96828.00;611319;230;68812;-58
2023/04/27 09:00:53;;;;;;;;;;;;;;;24.76;48.33;96822.63;615352;229;68653;-59
2023/04/27 09:03:25;;;;;;;;;;;;;;;24.77;45.19;96821.55;616005;230;65016;-59
2023/04/27 09:05:53;;;;;;;;;;;;;;;24.78;46.47;96830.41;613592;230;68820;-59
2023/04/27 09:08:20;;;;;;;;;;;;;;;24.77;49.29;96832.30;611328;230;68519;-59
2023/04/27 09:10:49;;;;;;;;;;;;;;;24.78;47.37;96827.72;616361;230;65037;-58
2023/04/27 09:13:17;;;;;;;;;;;;;;;24.76;47.50;96819.15;616115;229;66106;-59
2023/04/27 09:15:45;;;;;;;;;;;;;;;24.77;44.73;96826.92;613178;230;66742;-59
2023/04/27 09:18:16;;;;;;;;;;;;;;;24.77;48.61;96815.36;613114;230;64921;-59
2023/04/27 09:20:45;;;;;;;;;;;;;;;24.77;47.74;96818.05;616166;230;69130;-59
2023/04/27 09:23:14;;;;;;;;;;;;;;;24.77;47.08;96824.23;615185;228;68754;-59
2023/04/27 09:25:41;;;;;;;;;;;;;;;24.77;48.43;96813.48;610872;230;63825;-59
2023/04/27 09:28:09;;;;;;;;;;;;;;;24.77;48.76;96813.48;614694;230;68867;-59
2023/04/27 09:30:36;;;;;;;;;;;;;;;24.75;48.69;96815.67;616170;228;66477;-59
2023/04/27 09:33:04;;;;;;;;;;;;;;;24.76;47.80;96817.25;611944;230;65041;-60
2023/04/27 09:35:32;;;;;;;;;;;;;;;24.76;48.87;96814.56;614502;230;68852;-59
2023/04/27 09:38:00;;;;;;;;;;;;;;;24.77;48.72;96816.17;611204;230;68581;-59
2023/04/27 09:40:29;;;;;;;;;;;;;;;24.76;48.11;96813.77;611217;230;62737;-59
2023/04/27 09:43:01;;;;;;;;;;;;;;;24.77;46.43;96801.92;613319;227;68809;-58
2023/04/27 09:45:30;;;;;;;;;;;;;;;24.78;48.32;96803.53;611370;231;68486;-59
2023/04/27 09:47:58;;;;;;;;;;;;;;;24.76;46.57;96803.81;611315;230;65054;-59
2023/04/27 09:50:25;;;;;;;;;;;;;;;24.78;48.38;96796.26;611408;230;66274;-59
2023/04/27 09:52:53;;;;;;;;;;;;;;;24.80;49.50;96806.72;615249;230;68709;-59
2023/04/27 09:55:33;;;;;;;;;;;;;;;24.79;46.81;96792.46;615019;230;62940;-59
2023/04/27 09:58:19;;;;;;;;;;;;;;;24.80;48.33;96788.70;611233;230;68846;-59
2023/04/27 10:00:48;;;;;;;;;;;;;;;24.81;45.37;96786.80;615153;230;66546;-58
2023/04/27 10:03:18;;;;;;;;;;;;;;;24.81;48.67;96786.80;616348;228;62764;-59
2023/04/27 10:06:02;;;;;;;;;;;;;;;24.82;48.38;96791.06;611346;230;68857;-59
2023/04/27 10:08:30;;;;;;;;;;;;;;;24.82;45.08;96785.69;610565;230;66900;-59
2023/04/27 10:10:57;;;;;;;;;;;;;;;24.84;49.09;96788.88;615451;230;62982;-58
2023/04/27 10:13:26;;;;;;;;;;;;;;;24.84;49.25;96778.13;614877;230;68957;-59
2023/04/27 10:15:53;;;;;;;;;;;;;;;24.85;45.34;96784.30;613398;230;68776;-59
2023/04/27 10:18:28;;;;;;;;;;;;;;;24.87;43.34;96787.48;615971;230;65050;-59
2023/04/27 10:20:56;;;;;;;;;;;;;;;24.89;46.35;96780.71;615746;230;68824;-58
2023/04/27 10:23:25;;;;;;;;;;;;;;;24.90;43.69;96781.50;612806;230;68481;-59
2023/04/27 10:25:53;;;;;;;;;;;;;;;24.93;48.02;96775.52;616786;229;65065;-59
2023/04/27 10:28:21;;;;;;;;;;;;;;;24.92;46.70;96784.69;612936;229;67989;-60
2023/04/27 10:30:48;;;;;;;;;;;;;;;24.92;45.47;96772.04;611322;231;66491;-61
2023/04/27 10:33:18;;;;;;;;;;;;;;;24.93;47.68;96779.00;613434;229;65140;-59
2023/04/27 10:35:46;;;;;;;;;;;;;;;24.96;47.36;96773.05;610225;230;68793;-60
2023/04/27 10:38:18;;;;;;;;;;;;;;;24.96;46.00;96770.35;610302;230;68572;-60
2023/04/27 10:40:47;;;;;;;;;;;;;;;24.99;43.95;96764.37;614774;230;63101;-61
2023/04/27 10:43:16;;;;;;;;;;;;;;;25.00;47.58;96773.22;615404;230;66260;-60
2023/04/27 10:45:44;;;;;;;;;;;;;;;25.01;44.47;96770.21;614022;230;68510;-59
2023/04/27 10:48:15;;;;;;;;;;;;;;;25.03;47.71;96776.09;611163;230;65138;-60
2023/04/27 10:50:47;;;;;;;;;;;;;;;25.02;45.33;96768.34;614947;230;68726;-60
2023/04/27 10:53:12;;;;;;;;;;;;;;;25.00;46.94;96765.95;617443;228;69402;-59
2023/04/27 10:55:39;;;;;;;;;;;;;;;25.02;46.84;96776.41;619412;228;65142;-62
2023/04/27 10:58:07;;;;;;;;;;;;;;;25.03;45.08;96770.71;618349;228;66660;-60
2023/04/27 11:00:36;;;;;;;;;;;;;;;25.06;44.61;96765.84;618968;229;68782;-60
2023/04/27 11:03:14;;;;;;;;;;;;;;;25.07;42.48;96770.89;617503;228;65362;-59
2023/04/27 11:05:43;;;;;;;;;;;;;;;25.09;42.50;96773.30;619428;228;68723;-59
2023/04/27 11:08:13;;;;;;;;;;;;;;;25.10;43.67;96778.38;618844;226;68801;-59
2023/04/27 11:10:44;;;;;;;;;;;;;;;25.13;42.24;96782.36;618945;229;66076;-60
2023/04/27 11:13:13;;;;;;;;;;;;;;;25.14;42.53;96779.34;619181;227;68848;-59
2023/04/27 11:15:48;;;;;;;;;;;;;;;25.14;41.85;96776.66;618507;229;68534;-59
2023/04/27 11:18:16;;;;;;;;;;;;;;;25.15;41.53;96777.48;616993;229;63010;-59
2023/04/27 11:20:45;;;;;;;;;;;;;;;25.17;41.94;96775.29;619135;228;65612;-59
2023/04/27 11:23:17;;;;;;;;;;;;;;;25.18;42.53;96782.25;611036;229;66932;-59
2023/04/27 11:25:43;;;;;;;;;;;;;;;25.18;43.53;96777.69;619420;228;62900;-59
2023/04/27 11:28:18;;;;;;;;;;;;;;;25.19;41.24;96773.89;619631;229;68823;-59
2023/04/27 11:30:45;;;;;;;;;;;;;;;25.21;45.31;96781.67;617635;229;66548;-59
2023/04/27 11:33:13;;;;;;;;;;;;;;;25.20;41.71;96785.44;619135;228;62942;-59
2023/04/27 11:35:41;;;;;;;;;;;;;;;25.21;41.30;96787.05;618993;229;66599;-60
2023/04/27 11:38:10;;;;;;;;;;;;;;;25.24;41.24;96794.50;615739;229;68677;-59
2023/04/27 11:40:42;;;;;;;;;;;;;;;25.24;41.55;96789.12;617519;229;46333;-59
2023/04/27 11:43:10;;;;;;;;;;;;;;;25.25;41.19;96788.80;619153;227;68478;-59
2023/04/27 11:45:39;;;;;;;;;;;;;;;25.27;41.40;96783.13;619438;229;69295;-59
2023/04/27 11:48:07;;;;;;;;;;;;;;;25.28;42.93;96798.16;620006;228;65113;-59
2023/04/27 11:50:35;;;;;;;;;;;;;;;25.28;41.32;96798.16;619587;228;68993;-59
2023/04/27 11:53:02;;;;;;;;;;;;;;;25.29;41.49;96794.39;619014;226;66664;-59
2023/04/27 11:55:30;;;;;;;;;;;;;;;25.29;41.65;96794.39;619045;229;62880;-59
2023/04/27 11:57:58;;;;;;;;;;;;;;;25.31;41.71;96796.76;619031;229;66506;-59
2023/04/27 12:00:25;;;;;;;;;;;;;;;25.31;42.26;96794.06;619239;228;68819;-60
2023/04/27 12:02:53;;;;;;;;;;;;;;;25.32;41.70;96803.72;618501;228;65080;-58
2023/04/27 12:05:20;;;;;;;;;;;;;;;25.32;41.55;96798.34;618478;229;68879;-59
2023/04/27 12:07:48;;;;;;;;;;;;;;;25.32;41.25;96799.16;618511;229;68700;-60
2023/04/27 12:10:15;;;;;;;;;;;;;;;25.32;41.30;96804.54;618446;229;63007;-59
2023/04/27 12:12:43;;;;;;;;;;;;;;;25.32;41.62;96796.47;617501;227;68777;-59
2023/04/27 12:15:11;;;;;;;;;;;;;;;25.34;44.70;96796.15;611771;229;68539;-59
2023/04/27 12:17:39;;;;;;;;;;;;;;;25.32;41.97;96793.78;613991;229;65104;-59
2023/04/27 12:20:07;;;;;;;;;;;;;;;25.34;41.54;96796.15;620422;227;66593;-59
2023/04/27 12:22:34;;;;;;;;;;;;;;;25.34;42.58;96796.15;620812;228;68630;-59
2023/04/27 12:25:02;;;;;;;;;;;;;;;25.33;41.14;96795.36;619313;228;65103;-60
2023/04/27 12:27:29;;;;;;;;;;;;;;;25.34;41.26;96796.94;619419;228;69019;-59
2023/04/27 12:29:58;;;;;;;;;;;;;;;25.35;44.56;96792.37;619910;228;68314;-59
2023/04/27 12:32:26;;;;;;;;;;;;;;;25.35;43.88;96800.45;619940;229;62945;-60
2023/04/27 12:34:54;;;;;;;;;;;;;;;25.35;41.07;96787.00;620980;228;68819;-58
2023/04/27 12:37:21;;;;;;;;;;;;;;;25.36;41.22;96789.36;620816;228;69061;-60
2023/04/27 12:39:49;;;;;;;;;;;;;;;25.35;41.13;96790.48;619252;229;62903;-59
2023/04/27 12:42:22;;;;;;;;;;;;;;;25.35;41.12;96795.06;619197;229;68805;-60
2023/04/27 12:44:46;;;;;;;;;;;;;;;25.36;43.53;96783.98;619489;228;68618;-59
2023/04/27 12:47:13;;;;;;;;;;;;;;;25.36;41.38;96800.13;619372;228;63005;-59
2023/04/27 12:49:41;;;;;;;;;;;;;;;25.36;41.19;96789.36;620255;228;66606;-59
2023/04/27 12:52:08;;;;;;;;;;;;;;;25.36;41.84;96789.36;618811;229;68757;-59